Time;durP1;ratioP1;P1;durP2;ratioP2;P2;SDS_P1;SDS_P2;PMS_P1;PMS_P2;Temp;Humidity;BMP_temperature;BMP_pressure;BME280_temperature;BME280_humidity;BME280_pressure;Samples;Min_cycle;Max_cycle;Signal;HPM_P1;HPM_P2
2022/01/27 00:04:17;;;;;;;66.45;36.92;;;;;;;;;;6340867;22;20011;-70
2022/01/27 00:06:49;;;;;;;67.03;38.75;;;;;;;;;;6326950;22;20084;-70
2022/01/27 00:09:42;;;;;;;80.88;41.83;;;;;;;;;;6328700;22;20027;-70
2022/01/27 00:12:09;;;;;;;78.43;40.70;;;;;;;;;;6303196;22;19991;-71
2022/01/27 00:14:44;;;;;;;71.63;39.40;;;;;;;;;;6327082;22;20006;-70
2022/01/27 00:17:15;;;;;;;81.25;41.45;;;;;;;;;;6324720;22;20030;-70
2022/01/27 00:19:41;;;;;;;79.55;42.55;;;;;;;;;;6324896;22;20492;-70
2022/01/27 00:22:11;;;;;;;80.10;47.03;;;;;;;;;;6325187;22;19983;-71
2022/01/27 00:24:57;;;;;;;67.63;39.78;;;;;;;;;;6328859;22;20022;-72
2022/01/27 00:27:23;;;;;;;59.88;37.28;;;;;;;;;;6302443;22;20063;-71
2022/01/27 00:29:49;;;;;;;53.85;33.58;;;;;;;;;;6330235;22;20007;-70
2022/01/27 00:32:15;;;;;;;51.22;31.83;;;;;;;;;;6330551;22;20002;-70
2022/01/27 00:34:41;;;;;;;57.80;34.22;;;;;;;;;;6331930;22;20000;-71
2022/01/27 00:37:10;;;;;;;56.58;33.30;;;;;;;;;;6331023;22;20007;-70
2022/01/27 00:39:36;;;;;;;55.10;32.75;;;;;;;;;;6260143;23;20012;-71
2022/01/27 00:42:02;;;;;;;50.47;31.77;;;;;;;;;;6268760;23;20008;-70
2022/01/27 00:44:29;;;;;;;53.65;33.03;;;;;;;;;;6271223;22;20041;-70
2022/01/27 00:46:57;;;;;;;52.55;31.65;;;;;;;;;;6266877;22;20008;-70
2022/01/27 00:49:28;;;;;;;50.45;31.17;;;;;;;;;;6267581;22;20012;-70
2022/01/27 00:51:56;;;;;;;50.10;31.10;;;;;;;;;;6273680;22;20000;-70
2022/01/27 00:54:27;;;;;;;51.60;31.27;;;;;;;;;;6267761;23;20001;-70
2022/01/27 00:59:42;;;;;;;50.50;31.42;;;;;;;;;;6272831;23;20039;-71
2022/01/27 01:02:25;;;;;;;57.33;35.55;;;;;;;;;;6270131;22;20088;-72
2022/01/27 01:05:05;;;;;;;58.55;34.28;;;;;;;;;;6248051;22;19992;-71
2022/01/27 01:07:36;;;;;;;52.65;32.50;;;;;;;;;;6239886;23;19991;-70
2022/01/27 01:11:13;;;;;;;57.40;34.63;;;;;;;;;;6291253;22;20015;-70
2022/01/27 01:16:09;;;;;;;;;;;;;;;;;;6246578;23;20043;-70
2022/01/27 01:35:10;;;;;;;60.88;34.58;;;;;;;;;;6062895;23;20018;-69
2022/01/27 01:37:56;;;;;;;56.38;34.25;;;;;;;;;;6054483;23;20574;-70
2022/01/27 01:40:22;;;;;;;64.82;36.35;;;;;;;;;;6058666;23;20023;-72
2022/01/27 01:43:04;;;;;;;62.67;37.53;;;;;;;;;;6063076;23;20046;-71
2022/01/27 01:45:34;;;;;;;64.47;38.53;;;;;;;;;;6147831;23;19994;-70
2022/01/27 01:48:00;;;;;;;55.58;34.83;;;;;;;;;;6146685;23;20006;-71
2022/01/27 01:50:27;;;;;;;51.42;32.72;;;;;;;;;;6151446;23;20006;-80
2022/01/27 01:53:07;;;;;;;51.25;32.38;;;;;;;;;;6126306;23;20034;-71
2022/01/27 01:55:33;;;;;;;53.90;33.75;;;;;;;;;;6149048;23;19990;-70
2022/01/27 01:58:01;;;;;;;55.88;35.13;;;;;;;;;;6225971;23;20012;-71
2022/01/27 02:00:27;;;;;;;57.67;33.70;;;;;;;;;;6237965;23;20050;-70
2022/01/27 02:02:54;;;;;;;59.72;35.63;;;;;;;;;;6234863;23;20020;-70
2022/01/27 02:05:23;;;;;;;58.00;34.25;;;;;;;;;;6212605;22;19996;-70
2022/01/27 02:08:33;;;;;;;49.20;29.75;;;;;;;;;;6237558;22;20005;-70
2022/01/27 02:19:18;;;;;;;53.05;33.17;;;;;;;;;;6331475;22;20026;-70
2022/01/27 02:21:45;;;;;;;53.85;33.90;;;;;;;;;;6333641;22;20007;-70
2022/01/27 02:24:17;;;;;;;56.28;35.17;;;;;;;;;;6305667;22;20022;-71
2022/01/27 02:26:44;;;;;;;54.80;32.75;;;;;;;;;;6332107;22;20075;-71
2022/01/27 02:29:13;;;;;;;61.35;37.75;;;;;;;;;;6333549;22;19994;-70
2022/01/27 02:31:41;;;;;;;50.88;31.52;;;;;;;;;;6329899;22;20017;-73
2022/01/27 02:34:07;;;;;;;46.72;30.35;;;;;;;;;;6305248;22;20047;-70
2022/01/27 02:36:33;;;;;;;46.83;29.83;;;;;;;;;;6327859;22;19979;-70
2022/01/27 02:39:00;;;;;;;53.58;33.83;;;;;;;;;;6332390;22;19983;-73
2022/01/27 02:41:45;;;;;;;55.10;31.95;;;;;;;;;;6304658;22;20007;-70
2022/01/27 02:44:32;;;;;;;47.55;28.42;;;;;;;;;;6331182;22;20004;-70
2022/01/27 02:46:58;;;;;;;49.03;29.92;;;;;;;;;;6330632;22;20025;-72
2022/01/27 02:49:40;;;;;;;56.95;32.50;;;;;;;;;;6332510;22;19987;-75
2022/01/27 02:52:36;;;;;;;51.10;31.00;;;;;;;;;;6208416;22;20025;-70
2022/01/27 02:55:02;;;;;;;52.50;31.50;;;;;;;;;;6207930;22;19994;-70
2022/01/27 02:57:28;;;;;;;50.38;30.63;;;;;;;;;;6203657;22;19997;-70
2022/01/27 02:59:56;;;;;;;50.28;30.73;;;;;;;;;;6204761;23;20032;-70
2022/01/27 03:02:31;;;;;;;48.22;30.85;;;;;;;;;;6208075;22;20035;-70
2022/01/27 03:04:57;;;;;;;45.10;28.02;;;;;;;;;;6181916;23;20064;-70
2022/01/27 03:07:23;;;;;;;47.45;29.35;;;;;;;;;;6204055;23;20009;-70
2022/01/27 03:09:49;;;;;;;46.05;28.75;;;;;;;;;;6179417;23;20025;-76
2022/01/27 03:12:17;;;;;;;47.42;29.55;;;;;;;;;;6205478;23;20024;-75
2022/01/27 03:15:01;;;;;;;;;;;;;;;;;;;;;
2022/01/27 03:17:28;;;;;;;46.47;28.77;;;;;;;;;;6196345;23;20001;-70
2022/01/27 03:19:57;;;;;;;43.75;28.70;;;;;;;;;;6205172;23;20006;-73
2022/01/27 03:22:35;;;;;;;45.38;27.50;;;;;;;;;;6187163;23;20024;-70
2022/01/27 03:25:30;;;;;;;41.78;27.58;;;;;;;;;;6205943;23;20019;-75
2022/01/27 03:27:56;;;;;;;44.80;27.52;;;;;;;;;;6220591;22;20013;-70
2022/01/27 03:30:25;;;;;;;46.35;27.10;;;;;;;;;;6322359;22;20039;-71
2022/01/27 03:32:51;;;;;;;44.80;27.25;;;;;;;;;;6327279;22;19991;-70
2022/01/27 03:35:35;;;;;;;42.75;27.67;;;;;;;;;;6330147;22;19992;-77
2022/01/27 03:38:01;;;;;;;46.60;28.42;;;;;;;;;;6331916;22;19991;-72
2022/01/27 03:40:27;;;;;;;42.30;26.45;;;;;;;;;;6329975;22;19987;-70
2022/01/27 03:43:04;;;;;;;43.67;27.10;;;;;;;;;;6328741;22;19998;-70
2022/01/27 03:45:30;;;;;;;47.22;28.45;;;;;;;;;;6333375;22;20037;-73
2022/01/27 03:47:57;;;;;;;44.88;27.95;;;;;;;;;;6333902;22;20031;-76
2022/01/27 03:50:23;;;;;;;44.85;27.65;;;;;;;;;;6329976;22;19984;-75
2022/01/27 03:52:49;;;;;;;42.85;26.30;;;;;;;;;;6332504;22;19991;-70
2022/01/27 03:55:15;;;;;;;45.38;27.45;;;;;;;;;;6327530;22;19999;-70
2022/01/27 03:57:41;;;;;;;44.92;26.42;;;;;;;;;;6331118;22;19987;-74
2022/01/27 04:00:26;;;;;;;45.33;26.65;;;;;;;;;;6332023;22;19984;-71
2022/01/27 04:03:15;;;;;;;44.97;27.13;;;;;;;;;;6331919;22;20011;-70
2022/01/27 04:05:51;;;;;;;48.83;26.63;;;;;;;;;;6329412;22;20029;-71
2022/01/27 04:11:22;;;;;;;;;;;;;;;;;;6238073;23;20394;-72
2022/01/27 04:13:50;;;;;;;45.60;28.10;;;;;;;;;;6234363;23;19936;-70
2022/01/27 04:16:16;;;;;;;44.97;26.77;;;;;;;;;;6228579;23;20012;-70
2022/01/27 04:18:46;;;;;;;43.85;27.23;;;;;;;;;;6233888;23;19993;-70
2022/01/27 04:21:41;;;;;;;46.58;26.92;;;;;;;;;;6212752;23;20008;-71
2022/01/27 04:24:16;;;;;;;45.17;27.92;;;;;;;;;;6238027;23;19989;-71
2022/01/27 04:26:47;;;;;;;44.97;26.88;;;;;;;;;;6237499;23;20016;-70
2022/01/27 04:29:15;;;;;;;49.75;28.77;;;;;;;;;;6213319;23;19995;-77
2022/01/27 04:31:43;;;;;;;50.40;28.10;;;;;;;;;;6240240;23;19996;-74
2022/01/27 04:34:11;;;;;;;45.15;27.90;;;;;;;;;;6238216;23;20016;-72
2022/01/27 04:36:56;;;;;;;43.67;27.42;;;;;;;;;;6238790;23;20048;-73
2022/01/27 04:39:55;;;;;;;46.72;28.58;;;;;;;;;;6237096;23;20012;-71
2022/01/27 04:42:35;;;;;;;45.33;27.05;;;;;;;;;;6289971;22;19991;-70
2022/01/27 04:45:28;;;;;;;45.90;27.20;;;;;;;;;;6332838;22;19984;-73
2022/01/27 04:48:03;;;;;;;46.25;27.20;;;;;;;;;;6334232;22;20010;-71
2022/01/27 04:50:51;;;;;;;48.15;28.20;;;;;;;;;;6332749;22;19983;-70
2022/01/27 04:53:43;;;;;;;49.75;28.58;;;;;;;;;;6334209;22;20043;-73
2022/01/27 04:56:13;;;;;;;42.90;28.20;;;;;;;;;;6331884;22;20007;-71
2022/01/27 04:59:04;;;;;;;44.78;27.33;;;;;;;;;;6334600;22;19999;-71
2022/01/27 05:02:13;;;;;;;44.78;27.42;;;;;;;;;;6306924;22;19991;-74
2022/01/27 05:04:41;;;;;;;48.80;28.23;;;;;;;;;;6333505;22;20031;-74
2022/01/27 05:07:15;;;;;;;51.45;29.20;;;;;;;;;;6308554;22;20013;-72
2022/01/27 05:10:14;;;;;;;48.58;28.67;;;;;;;;;;6335828;22;19992;-76
2022/01/27 05:12:47;;;;;;;44.42;27.90;;;;;;;;;;6335045;22;20007;-77
2022/01/27 05:15:13;;;;;;;40.20;26.13;;;;;;;;;;6307831;22;19989;-72
2022/01/27 05:17:39;;;;;;;50.97;28.80;;;;;;;;;;6336207;22;20021;-70
2022/01/27 05:20:06;;;;;;;47.83;28.15;;;;;;;;;;6334607;22;20019;-71
2022/01/27 05:22:32;;;;;;;46.25;29.27;;;;;;;;;;6331465;22;20436;-70
2022/01/27 05:25:04;;;;;;;44.10;26.85;;;;;;;;;;6333018;22;19983;-70
2022/01/27 05:27:30;;;;;;;46.45;27.00;;;;;;;;;;6303628;22;20033;-70
2022/01/27 05:30:07;;;;;;;42.55;27.35;;;;;;;;;;6333428;22;20009;-71
2022/01/27 05:32:36;;;;;;;47.05;28.15;;;;;;;;;;6320430;22;20382;-72
2022/01/27 05:35:02;;;;;;;45.00;28.52;;;;;;;;;;6329768;22;20425;-72
2022/01/27 05:37:28;;;;;;;44.00;27.95;;;;;;;;;;6329184;22;20011;-71
2022/01/27 05:39:57;;;;;;;44.63;27.33;;;;;;;;;;6335280;22;19988;-69
2022/01/27 05:42:27;;;;;;;49.53;27.42;;;;;;;;;;6309199;22;20057;-70
2022/01/27 05:45:32;;;;;;;44.38;27.05;;;;;;;;;;6303227;22;20011;-72
2022/01/27 05:47:58;;;;;;;42.47;27.10;;;;;;;;;;6301562;22;20008;-70
2022/01/27 05:50:24;;;;;;;44.92;28.38;;;;;;;;;;6332981;22;20033;-70
2022/01/27 05:52:50;;;;;;;46.55;28.95;;;;;;;;;;6333023;22;20007;-70
2022/01/27 05:55:18;;;;;;;47.55;29.55;;;;;;;;;;6334409;22;20023;-69
2022/01/27 05:57:44;;;;;;;45.85;28.48;;;;;;;;;;6333334;22;20004;-70
2022/01/27 06:00:13;;;;;;;49.15;29.92;;;;;;;;;;6331559;22;20007;-74
2022/01/27 06:02:39;;;;;;;46.22;29.23;;;;;;;;;;6331534;22;20055;-70
2022/01/27 06:05:06;;;;;;;44.78;28.10;;;;;;;;;;6328838;22;20037;-73
2022/01/27 06:07:32;;;;;;;45.90;28.23;;;;;;;;;;6331319;22;20000;-70
2022/01/27 06:10:07;;;;;;;45.80;28.20;;;;;;;;;;6326029;22;20014;-71
2022/01/27 06:12:33;;;;;;;44.80;29.00;;;;;;;;;;6303402;22;20019;-70
2022/01/27 06:14:59;;;;;;;45.08;29.35;;;;;;;;;;6334366;22;19990;-70
2022/01/27 06:17:28;;;;;;;46.40;28.25;;;;;;;;;;6334405;22;20020;-74
2022/01/27 06:19:57;;;;;;;47.60;28.80;;;;;;;;;;6334559;22;20065;-72
2022/01/27 06:22:41;;;;;;;44.55;28.83;;;;;;;;;;6328464;22;19998;-70
2022/01/27 06:27:58;;;;;;;46.60;30.10;;;;;;;;;;6314998;22;20050;-73
2022/01/27 06:30:26;;;;;;;45.80;29.08;;;;;;;;;;6317002;22;20039;-73
2022/01/27 06:32:52;;;;;;;45.22;28.23;;;;;;;;;;6289781;22;20011;-70
2022/01/27 06:35:48;;;;;;;;;;;;;;;;;;;;;
2022/01/27 06:38:45;;;;;;;128.70;79.90;;;;;;;;;;6322312;22;20007;-69
2022/01/27 06:41:13;;;;;;;83.10;55.17;;;;;;;;;;6325139;22;20025;-68
2022/01/27 06:44:15;;;;;;;66.85;45.70;;;;;;;;;;6318781;22;20010;-69
2022/01/27 06:46:45;;;;;;;53.83;34.95;;;;;;;;;;6160404;23;20081;-69
2022/01/27 06:49:22;;;;;;;53.83;32.85;;;;;;;;;;6139093;23;20017;-72
2022/01/27 06:51:50;;;;;;;52.70;32.97;;;;;;;;;;6134680;23;20006;-71
2022/01/27 06:54:20;;;;;;;54.53;33.63;;;;;;;;;;6160703;23;20005;-71
2022/01/27 06:56:47;;;;;;;64.93;38.75;;;;;;;;;;6161993;23;20005;-70
2022/01/27 06:59:17;;;;;;;77.03;42.83;;;;;;;;;;6163293;23;20014;-71
2022/01/27 07:01:48;;;;;;;83.53;44.40;;;;;;;;;;6161821;23;20001;-72
2022/01/27 07:04:22;;;;;;;69.32;39.88;;;;;;;;;;6160466;23;20135;-71
2022/01/27 07:06:51;;;;;;;58.55;35.00;;;;;;;;;;6140218;23;19997;-71
2022/01/27 07:09:43;;;;;;;57.30;34.95;;;;;;;;;;6165759;23;20009;-71
2022/01/27 07:12:09;;;;;;;79.47;52.80;;;;;;;;;;6148176;23;20013;-71
2022/01/27 07:14:38;;;;;;;93.25;60.47;;;;;;;;;;6144784;23;20002;-71
2022/01/27 07:17:07;;;;;;;123.75;83.20;;;;;;;;;;6169593;23;20041;-70
2022/01/27 07:19:36;;;;;;;158.98;105.57;;;;;;;;;;6164119;23;20009;-70
2022/01/27 07:22:14;;;;;;;180.18;114.47;;;;;;;;;;6167031;23;20001;-70
2022/01/27 07:24:53;;;;;;;72.25;46.40;;;;;;;;;;6315028;22;20010;-72
2022/01/27 07:27:33;;;;;;;64.93;39.38;;;;;;;;;;6290234;22;19999;-70
2022/01/27 07:30:07;;;;;;;63.35;38.47;;;;;;;;;;6319654;22;20059;-73
2022/01/27 07:32:49;;;;;;;66.72;42.22;;;;;;;;;;6241999;22;20091;-71
2022/01/27 07:38:28;;;;;;;79.10;44.08;;;;;;;;;;6319079;22;20065;-75
2022/01/27 07:40:55;;;;;;;85.05;53.97;;;;;;;;;;6282446;22;20057;-73
2022/01/27 07:43:21;;;;;;;97.90;65.72;;;;;;;;;;6309739;22;20004;-72
2022/01/27 07:45:47;;;;;;;68.28;45.50;;;;;;;;;;6315057;22;19999;-71
2022/01/27 07:48:29;;;;;;;68.28;43.33;;;;;;;;;;6256552;23;20016;-70
2022/01/27 07:51:03;;;;;;;70.20;44.72;;;;;;;;;;6233880;23;20070;-72
2022/01/27 07:53:30;;;;;;;72.18;42.38;;;;;;;;;;6245541;23;20070;-72
2022/01/27 07:55:56;;;;;;;59.20;39.55;;;;;;;;;;6255100;23;20000;-71
2022/01/27 07:58:25;;;;;;;56.53;34.78;;;;;;;;;;6258391;23;20108;-72
2022/01/27 08:00:54;;;;;;;61.72;38.30;;;;;;;;;;6258657;23;20007;-72
2022/01/27 08:03:20;;;;;;;62.03;37.38;;;;;;;;;;6229372;23;20027;-73
2022/01/27 08:05:46;;;;;;;57.95;35.97;;;;;;;;;;6253819;23;19997;-72
2022/01/27 08:08:17;;;;;;;57.15;36.17;;;;;;;;;;6255303;23;20008;-74
2022/01/27 08:10:50;;;;;;;55.40;33.35;;;;;;;;;;6251309;23;20037;-72
2022/01/27 08:13:19;;;;;;;81.03;47.38;;;;;;;;;;6246860;23;20043;-74
2022/01/27 08:15:48;;;;;;;102.75;58.47;;;;;;;;;;6218895;23;20004;-77
2022/01/27 08:18:14;;;;;;;64.60;40.70;;;;;;;;;;6219964;22;20054;-77
2022/01/27 08:20:40;;;;;;;57.75;37.72;;;;;;;;;;6310934;22;20006;-73
2022/01/27 08:23:07;;;;;;;51.63;34.63;;;;;;;;;;6279602;22;20061;-74
2022/01/27 08:25:42;;;;;;;51.38;33.20;;;;;;;;;;6279348;22;19999;-77
2022/01/27 08:28:19;;;;;;;70.45;32.92;;;;;;;;;;6311565;22;20005;-75
2022/01/27 08:30:50;;;;;;;50.90;33.53;;;;;;;;;;6308330;22;20003;-75
2022/01/27 08:33:20;;;;;;;47.47;31.83;;;;;;;;;;6317244;22;20094;-72
2022/01/27 08:35:48;;;;;;;47.38;30.67;;;;;;;;;;6287057;22;20085;-75
2022/01/27 08:38:14;;;;;;;40.63;27.27;;;;;;;;;;6290061;22;20064;-76
2022/01/27 08:40:41;;;;;;;43.72;28.88;;;;;;;;;;6307757;22;20368;-75
2022/01/27 08:46:19;;;;;;;49.67;30.95;;;;;;;;;;6316064;22;20028;-72
2022/01/27 08:48:50;;;;;;;47.20;29.80;;;;;;;;;;6290786;22;20007;-72
2022/01/27 08:51:42;;;;;;;54.53;30.17;;;;;;;;;;6317925;22;20007;-73
2022/01/27 08:54:34;;;;;;;47.05;29.85;;;;;;;;;;6325981;22;20018;-71
2022/01/27 08:57:08;;;;;;;43.03;27.33;;;;;;;;;;6259681;23;20064;-73
2022/01/27 08:59:43;;;;;;;53.47;32.38;;;;;;;;;;6208261;23;20326;-72
2022/01/27 09:02:17;;;;;;;46.85;29.38;;;;;;;;;;6262949;23;20015;-71
2022/01/27 09:05:15;;;;;;;50.25;32.75;;;;;;;;;;6236711;23;20001;-72
2022/01/27 09:08:02;;;;;;;44.25;29.52;;;;;;;;;;6200878;23;20024;-75
2022/01/27 09:11:01;;;;;;;44.33;27.55;;;;;;;;;;6204150;23;20001;-72
2022/01/27 09:13:39;;;;;;;71.32;42.40;;;;;;;;;;6153473;23;20017;-72
2022/01/27 09:16:26;;;;;;;39.97;27.73;;;;;;;;;;6177301;23;20002;-74
2022/01/27 09:19:01;;;;;;;43.38;28.23;;;;;;;;;;6175213;23;20009;-73
2022/01/27 09:21:39;;;;;;;48.67;34.38;;;;;;;;;;6204983;23;20005;-72
2022/01/27 09:24:06;;;;;;;43.45;29.73;;;;;;;;;;6202671;23;20068;-71
2022/01/27 09:26:58;;;;;;;53.17;33.78;;;;;;;;;;6175901;23;20037;-76
2022/01/27 09:29:28;;;;;;;44.35;29.10;;;;;;;;;;6177452;23;20025;-71
2022/01/27 09:32:05;;;;;;;45.17;29.73;;;;;;;;;;6210806;23;20005;-72
2022/01/27 09:34:35;;;;;;;43.17;27.42;;;;;;;;;;6230700;23;20000;-73
2022/01/27 09:37:07;;;;;;;38.65;24.95;;;;;;;;;;6232288;23;20028;-73
2022/01/27 09:39:43;;;;;;;38.30;25.58;;;;;;;;;;6232643;23;20004;-74
2022/01/27 09:42:14;;;;;;;37.40;24.83;;;;;;;;;;6228025;23;20004;-72
2022/01/27 09:44:44;;;;;;;38.45;25.38;;;;;;;;;;6199429;23;20060;-73
2022/01/27 09:47:16;;;;;;;38.83;26.00;;;;;;;;;;6204374;23;20027;-73
2022/01/27 09:52:09;;;;;;;41.78;27.05;;;;;;;;;;6258999;23;20024;-73
2022/01/27 09:54:45;;;;;;;47.22;28.65;;;;;;;;;;6220113;23;20009;-73
2022/01/27 09:57:12;;;;;;;42.78;28.55;;;;;;;;;;6163790;23;20005;-73
2022/01/27 09:59:38;;;;;;;47.92;29.98;;;;;;;;;;6161103;23;20016;-74
2022/01/27 10:02:06;;;;;;;42.95;26.52;;;;;;;;;;6159941;23;20005;-73
2022/01/27 10:04:44;;;;;;;38.38;25.70;;;;;;;;;;6157503;23;20109;-74
2022/01/27 10:07:11;;;;;;;42.08;25.85;;;;;;;;;;6155332;23;20033;-72
2022/01/27 10:09:37;;;;;;;42.95;25.40;;;;;;;;;;6156200;23;20428;-71
2022/01/27 10:12:04;;;;;;;38.50;23.73;;;;;;;;;;6130505;23;20013;-73
2022/01/27 10:14:34;;;;;;;37.90;25.42;;;;;;;;;;6155908;23;20010;-75
2022/01/27 10:17:04;;;;;;;45.42;26.80;;;;;;;;;;6164187;23;20325;-76
2022/01/27 10:19:50;;;;;;;41.17;27.08;;;;;;;;;;6136334;23;20010;-74
2022/01/27 10:22:17;;;;;;;43.38;25.88;;;;;;;;;;6163347;23;20005;-76
2022/01/27 10:24:52;;;;;;;42.58;27.42;;;;;;;;;;6161595;23;20057;-76
2022/01/27 10:32:51;;;;;;;40.60;24.38;;;;;;;;;;6099711;23;20018;-75
2022/01/27 10:35:21;;;;;;;40.35;24.77;;;;;;;;;;6118249;23;20051;-75
2022/01/27 10:37:56;;;;;;;34.30;19.63;;;;;;;;;;6129096;23;20444;-76
2022/01/27 10:40:27;;;;;;;34.72;20.75;;;;;;;;;;6127925;23;20009;-75
2022/01/27 10:43:03;;;;;;;38.88;21.20;;;;;;;;;;6128761;23;20012;-77
2022/01/27 10:45:29;;;;;;;36.05;20.65;;;;;;;;;;6129730;23;20056;-77
2022/01/27 10:48:08;;;;;;;36.05;22.13;;;;;;;;;;6131720;23;20069;-78
2022/01/27 10:51:09;;;;;;;39.60;22.83;;;;;;;;;;6136845;23;20006;-76
2022/01/27 10:54:05;;;;;;;41.00;23.73;;;;;;;;;;6071858;23;20025;-75
2022/01/27 10:56:40;;;;;;;42.92;23.00;;;;;;;;;;6089332;23;20022;-74
2022/01/27 10:59:14;;;;;;;42.88;23.80;;;;;;;;;;6091049;23;20003;-74
2022/01/27 11:01:43;;;;;;;40.53;24.60;;;;;;;;;;6082447;23;20058;-74
2022/01/27 11:04:13;;;;;;;37.58;23.55;;;;;;;;;;6090528;23;20022;-73
2022/01/27 11:07:02;;;;;;;35.15;23.17;;;;;;;;;;6148076;23;20015;-74
2022/01/27 11:09:33;;;;;;;37.03;23.85;;;;;;;;;;6141756;23;20089;-73
2022/01/27 11:12:07;;;;;;;41.40;24.08;;;;;;;;;;6170165;23;20005;-76
2022/01/27 11:15:08;;;;;;;41.50;25.67;;;;;;;;;;6167682;23;19993;-74
2022/01/27 11:17:39;;;;;;;48.53;24.92;;;;;;;;;;6053955;23;20436;-73
2022/01/27 11:28:06;;;;;;;47.35;25.88;;;;;;;;;;6054838;23;20012;-78
2022/01/27 11:30:51;;;;;;;44.92;25.77;;;;;;;;;;6146356;23;19998;-72
2022/01/27 11:33:19;;;;;;;49.35;25.30;;;;;;;;;;6156775;23;20017;-72
2022/01/27 11:36:07;;;;;;;39.78;24.00;;;;;;;;;;6170150;23;19994;-76
2022/01/27 11:38:42;;;;;;;38.03;24.15;;;;;;;;;;6162737;23;20383;-78
2022/01/27 11:41:29;;;;;;;37.30;23.95;;;;;;;;;;6162986;23;20009;-75
2022/01/27 11:44:14;;;;;;;41.10;22.55;;;;;;;;;;6145913;23;20001;-78
2022/01/27 11:46:40;;;;;;;39.88;22.65;;;;;;;;;;6161132;23;20328;-76
2022/01/27 11:49:26;;;;;;;40.50;23.85;;;;;;;;;;6202246;23;20008;-75
2022/01/27 11:52:12;;;;;;;42.15;22.98;;;;;;;;;;6193053;23;20744;-76
2022/01/27 11:54:38;;;;;;;37.33;23.17;;;;;;;;;;6268071;22;20081;-75
2022/01/27 11:57:04;;;;;;;47.45;26.83;;;;;;;;;;6279928;22;20004;-76
2022/01/27 11:59:38;;;;;;;43.25;27.48;;;;;;;;;;6285200;22;19995;-75
2022/01/27 12:02:04;;;;;;;49.58;29.90;;;;;;;;;;6285545;22;20015;-77
2022/01/27 12:04:30;;;;;;;40.42;24.77;;;;;;;;;;6307863;22;20117;-75
2022/01/27 12:06:56;;;;;;;45.50;25.13;;;;;;;;;;6313605;22;20054;-76
2022/01/27 12:09:22;;;;;;;45.83;25.13;;;;;;;;;;6322889;22;20007;-75
2022/01/27 12:11:57;;;;;;;40.00;24.20;;;;;;;;;;6314807;22;20082;-76
2022/01/27 12:14:27;;;;;;;47.75;29.33;;;;;;;;;;6312871;22;20007;-75
2022/01/27 12:17:12;;;;;;;46.70;25.67;;;;;;;;;;6311653;22;20000;-77
2022/01/27 12:20:00;;;;;;;44.88;25.58;;;;;;;;;;6312619;22;19995;-75
2022/01/27 12:22:29;;;;;;;37.67;23.48;;;;;;;;;;6287704;22;19999;-74
2022/01/27 12:24:55;;;;;;;44.55;24.80;;;;;;;;;;6284139;22;20421;-75
2022/01/27 12:27:21;;;;;;;50.83;26.85;;;;;;;;;;6314406;22;20027;-76
2022/01/27 12:29:57;;;;;;;53.40;30.58;;;;;;;;;;6310878;22;20007;-75
2022/01/27 12:32:25;;;;;;;42.10;23.55;;;;;;;;;;6312595;22;19995;-74
2022/01/27 12:34:56;;;;;;;41.08;23.20;;;;;;;;;;6318982;22;20003;-78
2022/01/27 12:37:27;;;;;;;38.78;23.23;;;;;;;;;;6288603;22;20003;-76
2022/01/27 12:39:54;;;;;;;39.33;23.67;;;;;;;;;;6320151;22;20006;-76
2022/01/27 12:42:23;;;;;;;36.92;22.05;;;;;;;;;;6323066;22;20429;-75
2022/01/27 12:44:57;;;;;;;41.17;22.38;;;;;;;;;;6319159;22;20055;-76
2022/01/27 12:47:24;;;;;;;34.15;20.95;;;;;;;;;;6299965;22;20018;-76
2022/01/27 12:50:02;;;;;;;41.97;23.00;;;;;;;;;;6327164;22;20004;-77
2022/01/27 12:52:30;;;;;;;40.15;22.52;;;;;;;;;;6296746;22;20015;-76
2022/01/27 12:54:57;;;;;;;42.58;24.17;;;;;;;;;;6325944;22;20010;-75
2022/01/27 12:57:27;;;;;;;43.03;23.70;;;;;;;;;;6297745;22;19999;-76
2022/01/27 12:59:54;;;;;;;42.55;23.48;;;;;;;;;;6323933;22;20002;-78
2022/01/27 13:02:30;;;;;;;49.03;23.00;;;;;;;;;;6316619;22;20003;-76
2022/01/27 13:04:57;;;;;;;42.20;24.75;;;;;;;;;;6289462;22;20079;-77
2022/01/27 13:07:23;;;;;;;36.55;22.40;;;;;;;;;;6292484;22;20007;-76
2022/01/27 13:10:03;;;;;;;43.90;27.00;;;;;;;;;;6290533;22;20523;-75
2022/01/27 13:13:04;;;;;;;37.78;24.27;;;;;;;;;;6293875;22;20000;-71
2022/01/27 13:15:45;;;;;;;39.22;24.05;;;;;;;;;;6300203;22;20003;-73
2022/01/27 13:18:30;;;;;;;45.35;25.15;;;;;;;;;;6302847;22;20023;-72
2022/01/27 13:21:32;;;;;;;41.80;23.70;;;;;;;;;;6301614;22;20012;-72
2022/01/27 13:24:14;;;;;;;45.67;24.50;;;;;;;;;;6292256;22;20007;-73
2022/01/27 13:26:45;;;;;;;38.38;22.55;;;;;;;;;;6293725;22;19991;-72
2022/01/27 13:29:15;;;;;;;38.55;22.45;;;;;;;;;;6289732;22;20000;-73
2022/01/27 13:31:41;;;;;;;40.10;23.63;;;;;;;;;;6293840;22;20034;-73
2022/01/27 13:34:08;;;;;;;34.70;21.02;;;;;;;;;;6287969;22;20027;-76
2022/01/27 13:36:37;;;;;;;44.95;23.02;;;;;;;;;;6291822;22;20105;-75
2022/01/27 13:42:00;;;;;;;43.00;24.60;;;;;;;;;;6303727;22;20007;-79
2022/01/27 13:47:35;;;;;;;46.40;27.23;;;;;;;;;;6247114;22;20028;-77
2022/01/27 13:50:20;;;;;;;42.63;27.95;;;;;;;;;;6252127;23;20004;-74
2022/01/27 13:52:47;;;;;;;43.00;26.45;;;;;;;;;;6229661;23;20008;-75
2022/01/27 13:55:23;;;;;;;43.75;27.65;;;;;;;;;;6253632;23;20004;-74
2022/01/27 13:57:59;;;;;;;44.28;27.67;;;;;;;;;;6256307;23;20049;-78
2022/01/27 14:00:37;;;;;;;47.85;30.38;;;;;;;;;;6252218;23;20108;-77
2022/01/27 14:03:13;;;;;;;50.33;30.42;;;;;;;;;;6274766;22;20050;-75
2022/01/27 14:05:41;;;;;;;49.60;32.75;;;;;;;;;;6257792;22;19999;-75
2022/01/27 14:08:07;;;;;;;49.63;31.30;;;;;;;;;;6262431;22;20491;-76
2022/01/27 14:10:41;;;;;;;50.28;30.65;;;;;;;;;;6284455;22;20007;-75
2022/01/27 14:13:17;;;;;;;48.22;30.45;;;;;;;;;;6295558;22;20008;-78
2022/01/27 14:15:53;;;;;;;53.28;32.55;;;;;;;;;;6243661;22;20071;-76
2022/01/27 14:18:23;;;;;;;52.78;34.03;;;;;;;;;;6242334;22;20003;-77
2022/01/27 14:20:56;;;;;;;63.17;32.92;;;;;;;;;;6288402;22;20006;-75
2022/01/27 14:23:32;;;;;;;53.78;33.63;;;;;;;;;;6255588;22;20004;-76
2022/01/27 14:26:06;;;;;;;50.22;30.27;;;;;;;;;;6286218;22;20003;-77
2022/01/27 14:28:32;;;;;;;;;;;;;;;;;;6234208;22;20011;-76
2022/01/27 14:30:58;;;;;;;53.22;30.58;;;;;;;;;;6283080;22;19965;-76
2022/01/27 14:33:24;;;;;;;51.20;31.48;;;;;;;;;;6283474;22;20429;-79
2022/01/27 14:35:50;;;;;;;41.72;26.35;;;;;;;;;;6281989;22;20117;-76
2022/01/27 14:38:16;;;;;;;46.63;28.83;;;;;;;;;;6282780;22;20105;-77
2022/01/27 14:40:46;;;;;;;48.70;29.45;;;;;;;;;;6258107;22;20082;-78
2022/01/27 14:43:17;;;;;;;43.20;25.50;;;;;;;;;;6294092;22;20000;-75
2022/01/27 14:45:45;;;;;;;44.03;27.17;;;;;;;;;;6285373;22;20022;-75
2022/01/27 14:48:11;;;;;;;45.53;26.88;;;;;;;;;;6240019;22;20004;-80
2022/01/27 14:50:42;;;;;;;41.05;26.55;;;;;;;;;;6264783;22;20030;-77
2022/01/27 14:53:13;;;;;;;40.75;23.17;;;;;;;;;;6299983;22;20092;-73
2022/01/27 14:55:39;;;;;;;40.63;24.55;;;;;;;;;;6294022;22;20000;-75
2022/01/27 14:58:08;;;;;;;38.25;22.42;;;;;;;;;;6279901;22;20098;-75
2022/01/27 15:00:34;;;;;;;37.90;23.80;;;;;;;;;;6279932;22;20425;-75
2022/01/27 15:03:07;;;;;;;38.47;23.13;;;;;;;;;;6280018;22;20002;-73
2022/01/27 15:05:36;;;;;;;43.85;25.05;;;;;;;;;;6290439;22;20034;-73
2022/01/27 15:08:10;;;;;;;40.38;23.42;;;;;;;;;;6287706;22;19999;-77
2022/01/27 15:10:38;;;;;;;42.58;24.52;;;;;;;;;;6264286;22;20004;-74
2022/01/27 15:13:04;;;;;;;46.70;25.60;;;;;;;;;;6281544;22;20016;-75
2022/01/27 15:21:02;;;;;;;49.47;26.50;;;;;;;;;;6300938;22;20018;-71
2022/01/27 15:23:35;;;;;;;42.38;27.13;;;;;;;;;;6269971;22;20003;-72
2022/01/27 15:26:06;;;;;;;51.47;30.47;;;;;;;;;;6234803;23;20027;-75
2022/01/27 15:28:33;;;;;;;56.22;32.67;;;;;;;;;;6195067;23;20238;-73
2022/01/27 15:31:05;;;;;;;59.72;32.22;;;;;;;;;;6189832;23;20001;-72
2022/01/27 15:33:34;;;;;;;62.70;37.40;;;;;;;;;;6191709;23;20042;-75
2022/01/27 15:36:06;;;;;;;45.60;27.30;;;;;;;;;;6191408;23;20001;-72
2022/01/27 15:38:37;;;;;;;48.40;30.83;;;;;;;;;;6220963;23;20004;-73
2022/01/27 15:41:04;;;;;;;52.72;31.15;;;;;;;;;;6192977;23;20005;-75
2022/01/27 15:43:32;;;;;;;56.60;31.98;;;;;;;;;;6215443;23;20008;-75
2022/01/27 15:46:00;;;;;;;78.72;39.03;;;;;;;;;;6218642;23;20008;-74
2022/01/27 15:48:26;;;;;;;94.38;43.03;;;;;;;;;;6244060;23;20034;-74
2022/01/27 15:50:52;;;;;;;116.85;54.88;;;;;;;;;;6246025;23;20028;-74
2022/01/27 15:53:23;;;;;;;56.70;29.30;;;;;;;;;;6219522;23;20066;-73
2022/01/27 15:56:06;;;;;;;42.72;25.23;;;;;;;;;;6225464;23;20015;-70
2022/01/27 16:02:07;;;;;;;;;;;;;;;;;;;;;
2022/01/27 16:04:39;;;;;;;53.58;28.20;;;;;;;;;;6121187;23;20092;-69
2022/01/27 16:07:08;;;;;;;49.38;29.60;;;;;;;;;;6123015;23;20081;-71
2022/01/27 16:09:35;;;;;;;45.53;26.58;;;;;;;;;;6102070;23;20017;-70
2022/01/27 16:12:01;;;;;;;41.60;25.40;;;;;;;;;;6101105;23;20029;-72